Time;durP1;ratioP1;P1;durP2;ratioP2;P2;SDS_P1;SDS_P2;PMS_P1;PMS_P2;Temp;Humidity;BMP_temperature;BMP_pressure;BME280_temperature;BME280_humidity;BME280_pressure;Samples;Min_cycle;Max_cycle;Signal;HPM_P1;HPM_P2
2021/01/28 00:01:08;;;;;;;22.20;15.43;;;;;;;5.61;100.00;100033.38;5071619;28;20266;-71
2021/01/28 00:03:37;;;;;;;22.47;15.10;;;;;;;5.50;100.00;100037.03;5071415;28;20179;-70
2021/01/28 00:06:03;;;;;;;22.93;16.43;;;;;;;5.54;100.00;100038.16;5036737;28;20302;-70
2021/01/28 00:08:28;;;;;;;24.13;16.03;;;;;;;5.54;100.00;100043.53;5038058;28;20191;-70
2021/01/28 00:10:54;;;;;;;24.57;17.20;;;;;;;5.54;100.00;100035.47;5054096;28;20241;-70
2021/01/28 00:13:22;;;;;;;22.73;16.23;;;;;;;5.56;100.00;100038.72;5037997;28;20175;-70
2021/01/28 00:15:50;;;;;;;22.87;16.03;;;;;;;5.58;100.00;100036.56;5020622;28;20210;-70
2021/01/28 00:18:16;;;;;;;21.13;15.90;;;;;;;5.48;100.00;100036.50;5071102;28;20175;-70
2021/01/28 00:20:47;;;;;;;22.33;15.67;;;;;;;5.49;100.00;100030.81;5054111;28;20233;-70
2021/01/28 00:23:12;;;;;;;21.87;16.17;;;;;;;5.54;100.00;100038.16;5038034;28;20186;-70
2021/01/28 00:25:38;;;;;;;21.50;15.57;;;;;;;5.48;100.00;100033.78;5053013;28;20214;-70
2021/01/28 00:28:04;;;;;;;22.20;14.27;;;;;;;5.51;100.00;100033.25;5037869;28;20183;-70
2021/01/28 00:30:35;;;;;;;21.73;15.47;;;;;;;5.53;100.00;100031.13;5054534;28;20219;-70
2021/01/28 00:33:00;;;;;;;22.90;15.50;;;;;;;5.59;100.00;100035.53;5069124;28;20611;-71
2021/01/28 00:35:34;;;;;;;21.97;15.90;;;;;;;5.57;100.00;100024.19;5019669;28;20226;-70
2021/01/28 00:38:00;;;;;;;22.63;14.87;;;;;;;5.60;100.00;100020.97;5038987;28;20601;-70
2021/01/28 00:40:27;;;;;;;21.97;14.60;;;;;;;5.57;100.00;100010.72;5052726;28;20211;-70
2021/01/28 00:42:52;;;;;;;20.93;14.33;;;;;;;5.63;100.00;100015.09;5054087;28;20178;-70
2021/01/28 00:45:19;;;;;;;20.07;14.73;;;;;;;5.55;100.00;100005.59;5036297;28;20722;-70
2021/01/28 00:47:44;;;;;;;19.37;14.10;;;;;;;5.61;100.00;100006.44;5054021;28;20178;-71
2021/01/28 00:50:12;;;;;;;17.97;13.60;;;;;;;5.55;100.00;100015.53;5037334;28;20331;-70
2021/01/28 00:52:41;;;;;;;21.23;14.87;;;;;;;5.65;100.00;100008.34;5038007;28;20189;-70
2021/01/28 00:55:08;;;;;;;20.50;14.10;;;;;;;5.67;100.00;100016.19;5036538;28;20618;-70
2021/01/28 00:57:34;;;;;;;18.93;13.57;;;;;;;5.69;100.00;100019.44;5037286;28;20209;-71
2021/01/28 01:00:02;;;;;;;15.83;12.13;;;;;;;5.55;100.00;100013.66;5058039;28;20262;-71
2021/01/28 01:02:30;;;;;;;19.13;14.00;;;;;;;5.52;100.00;100014.16;5023834;28;20230;-70
2021/01/28 01:04:59;;;;;;;19.30;12.87;;;;;;;5.45;100.00;100015.44;5053384;28;20556;-70
2021/01/28 01:07:25;;;;;;;18.20;12.70;;;;;;;5.59;100.00;100024.75;5020721;28;20268;-70
2021/01/28 01:09:51;;;;;;;15.67;13.10;;;;;;;5.52;100.00;100024.94;5037255;28;20203;-70
2021/01/28 01:12:17;;;;;;;17.47;12.47;;;;;;;5.42;100.00;100024.00;5052971;28;20218;-70
2021/01/28 01:14:43;;;;;;;15.73;12.63;;;;;;;5.43;100.00;100015.69;5052920;28;20171;-70
2021/01/28 01:17:08;;;;;;;17.70;12.10;;;;;;;5.55;100.00;100018.22;5053045;28;20222;-70
2021/01/28 01:19:35;;;;;;;16.37;12.57;;;;;;;5.62;100.00;100019.63;5036875;28;20276;-71
2021/01/28 01:22:09;;;;;;;16.30;13.00;;;;;;;5.52;100.00;100021.44;5023050;28;20219;-71
2021/01/28 01:24:36;;;;;;;15.73;12.00;;;;;;;5.44;100.00;100028.09;5069522;28;20213;-71
2021/01/28 01:27:02;;;;;;;17.37;12.57;;;;;;;5.47;100.00;100024.88;5053055;28;20223;-70
2021/01/28 01:29:30;;;;;;;16.23;12.13;;;;;;;5.58;100.00;100033.88;5057926;28;20203;-70
2021/01/28 01:32:20;;;;;;;17.80;12.40;;;;;;;5.56;100.00;100031.44;5061720;28;20221;-71
2021/01/28 01:35:11;;;;;;;16.37;12.30;;;;;;;5.47;100.00;100024.88;5054035;28;20202;-70
2021/01/28 01:37:39;;;;;;;17.00;11.70;;;;;;;5.55;100.00;100026.31;5038050;28;20210;-70
2021/01/28 01:40:06;;;;;;;18.77;13.57;;;;;;;5.57;100.00;100016.91;5054041;28;20210;-71
2021/01/28 01:42:39;;;;;;;16.80;12.53;;;;;;;5.54;100.00;100033.56;5022326;28;20219;-71
2021/01/28 01:45:06;;;;;;;15.77;12.17;;;;;;;5.57;100.00;100027.69;5052472;28;20228;-70
2021/01/28 01:47:41;;;;;;;16.20;12.83;;;;;;;5.58;100.00;100028.50;5053798;28;20229;-70
2021/01/28 01:50:32;;;;;;;16.83;12.40;;;;;;;5.57;100.00;100032.28;5052466;28;20232;-70
2021/01/28 01:53:01;;;;;;;16.77;12.50;;;;;;;5.36;100.00;100019.66;5041706;28;20194;-70
2021/01/28 01:55:32;;;;;;;15.17;11.63;;;;;;;5.43;100.00;100021.06;5056801;28;20264;-70
2021/01/28 01:58:04;;;;;;;14.87;11.93;;;;;;;5.55;100.00;100018.22;5026852;28;20210;-70
2021/01/28 02:00:36;;;;;;;15.20;12.40;;;;;;;5.56;100.00;100014.47;5029007;28;20229;-70
2021/01/28 02:03:16;;;;;;;14.30;11.83;;;;;;;5.62;100.00;100008.84;5039382;28;20198;-71
2021/01/28 02:06:17;;;;;;;13.77;11.60;;;;;;;5.55;100.00;100004.75;5053094;28;20243;-70
2021/01/28 02:09:01;;;;;;;14.10;11.40;;;;;;;5.63;100.00;100010.50;5041625;28;20363;-71
2021/01/28 02:11:52;;;;;;;15.03;11.57;;;;;;;5.45;100.00;100010.88;5039347;28;20231;-71
2021/01/28 02:14:31;;;;;;;12.53;10.67;;;;;;;5.67;100.00;100008.09;5040080;28;20188;-71
2021/01/28 02:17:08;;;;;;;14.10;10.87;;;;;;;5.58;100.00;99990.78;5054384;28;20221;-70
2021/01/28 02:19:55;;;;;;;13.97;10.60;;;;;;;5.52;100.00;99987.25;5040101;28;20238;-71
2021/01/28 02:22:52;;;;;;;14.57;11.37;;;;;;;5.39;100.00;99989.53;5052946;28;20310;-70
2021/01/28 02:25:28;;;;;;;12.37;10.37;;;;;;;5.32;100.00;99985.44;5035974;28;20191;-71
2021/01/28 02:27:58;;;;;;;11.53;9.60;;;;;;;5.31;100.00;99975.72;5038327;28;20237;-71
2021/01/28 02:30:45;;;;;;;12.43;10.67;;;;;;;5.27;100.00;99978.09;5063444;28;20242;-70
2021/01/28 02:33:35;;;;;;;12.40;9.77;;;;;;;5.50;100.00;99983.19;5038877;28;20253;-71
2021/01/28 02:36:18;;;;;;;11.43;10.23;;;;;;;5.37;100.00;99984.41;5039173;28;20727;-70
2021/01/28 02:38:44;;;;;;;13.60;10.43;;;;;;;5.46;100.00;99982.09;5038689;28;20210;-70
2021/01/28 02:41:11;;;;;;;11.43;9.80;;;;;;;5.41;100.00;99990.91;5028781;28;20226;-70
2021/01/28 02:43:50;;;;;;;14.10;10.00;;;;;;;5.47;100.00;99989.06;5051901;28;20194;-71
2021/01/28 02:46:36;;;;;;;11.50;9.77;;;;;;;5.48;100.00;99979.94;5052716;28;20243;-71
2021/01/28 02:49:17;;;;;;;12.73;10.27;;;;;;;5.37;100.00;99976.34;5041490;28;20207;-70
2021/01/28 02:51:48;;;;;;;12.20;9.87;;;;;;;5.35;100.00;99972.28;5068208;28;20215;-71
2021/01/28 02:54:22;;;;;;;13.50;10.43;;;;;;;5.32;100.00;99972.78;5053865;28;20206;-70
2021/01/28 02:56:49;;;;;;;13.43;10.47;;;;;;;5.21;100.00;99978.31;5019171;28;20219;-70
2021/01/28 02:59:15;;;;;;;14.37;10.27;;;;;;;5.36;100.00;99976.59;5060427;28;20294;-71
2021/01/28 03:01:46;;;;;;;12.60;10.10;;;;;;;5.45;100.00;99970.47;5039800;28;20293;-70
2021/01/28 03:04:15;;;;;;;12.10;9.67;;;;;;;5.61;100.00;99957.97;5041518;28;20217;-71
2021/01/28 03:07:01;;;;;;;11.97;9.77;;;;;;;5.54;100.00;99960.88;5058647;28;20226;-71
2021/01/28 03:09:30;;;;;;;13.27;10.17;;;;;;;5.58;100.00;99964.66;5055803;28;20203;-71
2021/01/28 03:12:15;;;;;;;15.73;9.57;;;;;;;5.56;100.00;99966.00;5044552;28;20265;-71
2021/01/28 03:14:56;;;;;;;13.07;9.90;;;;;;;5.47;100.00;99970.22;5043374;28;20294;-71
2021/01/28 03:17:22;;;;;;;12.53;10.17;;;;;;;5.41;100.00;99976.63;5022760;28;20225;-71
2021/01/28 03:19:56;;;;;;;15.23;9.77;;;;;;;5.47;100.00;99968.34;5057662;28;20211;-70
2021/01/28 03:22:23;;;;;;;12.93;9.57;;;;;;;5.42;100.00;99970.16;5055726;28;20219;-71
2021/01/28 03:24:55;;;;;;;11.53;9.40;;;;;;;5.36;100.00;99968.50;5071764;28;20183;-71
2021/01/28 03:27:24;;;;;;;14.07;10.13;;;;;;;5.61;100.00;99968.75;5055013;28;20591;-70
2021/01/28 03:29:53;;;;;;;12.43;8.63;;;;;;;5.41;100.00;99969.38;5055733;28;20211;-71
2021/01/28 03:32:21;;;;;;;13.43;10.23;;;;;;;5.52;100.00;99986.44;5038989;28;20238;-71
2021/01/28 03:34:50;;;;;;;13.33;9.57;;;;;;;5.46;100.00;99969.41;5055794;28;20212;-70
2021/01/28 03:37:17;;;;;;;11.63;9.50;;;;;;;5.34;100.00;99968.75;5054832;28;20603;-70
2021/01/28 03:39:52;;;;;;;11.53;9.17;;;;;;;5.29;100.00;99965.22;5041302;28;20213;-70
2021/01/28 03:42:18;;;;;;;14.40;10.10;;;;;;;5.32;100.00;99969.28;5071249;28;20222;-71
2021/01/28 03:44:45;;;;;;;12.57;9.43;;;;;;;5.57;100.00;99964.94;5054377;28;20175;-71
2021/01/28 03:47:11;;;;;;;10.80;9.10;;;;;;;5.37;100.00;99962.88;5071047;28;20288;-70
2021/01/28 03:49:51;;;;;;;12.03;9.13;;;;;;;5.29;100.00;99972.47;5057421;28;20213;-71
2021/01/28 03:52:22;;;;;;;11.73;9.03;;;;;;;5.26;100.00;99965.72;5038653;28;20252;-70
2021/01/28 03:55:22;;;;;;;10.13;8.70;;;;;;;5.36;100.00;99971.19;5034971;28;20278;-70
2021/01/28 03:57:49;;;;;;;13.90;9.17;;;;;;;5.32;100.00;99972.78;5038889;28;20684;-71
2021/01/28 04:00:30;;;;;;;10.97;8.57;;;;;;;5.37;100.00;99972.84;5025436;28;20226;-71
2021/01/28 04:03:03;;;;;;;9.70;8.10;;;;;;;5.29;100.00;99969.78;5041336;28;20609;-72
2021/01/28 04:06:01;;;;;;;9.67;8.10;;;;;;;5.11;100.00;99975.53;5056119;28;20219;-70
2021/01/28 04:08:57;;;;;;;10.03;8.00;;;;;;;4.97;100.00;99983.19;5027529;28;20238;-71
2021/01/28 04:12:01;;;;;;;8.83;7.93;;;;;;;5.10;100.00;99973.91;5066020;28;20221;-71
2021/01/28 04:14:52;;;;;;;9.47;8.20;;;;;;;5.14;100.00;99959.69;5070611;28;20195;-71
2021/01/28 04:17:22;;;;;;;10.87;8.23;;;;;;;5.04;100.00;99962.28;5037096;28;20239;-71
2021/01/28 04:19:59;;;;;;;10.33;7.90;;;;;;;4.80;100.00;99960.13;5039685;28;20379;-71
2021/01/28 04:22:29;;;;;;;10.03;8.00;;;;;;;4.50;100.00;99958.16;5038067;28;20280;-70
2021/01/28 04:24:58;;;;;;;10.13;7.63;;;;;;;4.37;100.00;99964.69;5038406;28;20213;-70
2021/01/28 04:27:24;;;;;;;9.23;7.30;;;;;;;4.39;100.00;99970.63;5053992;28;20695;-71
2021/01/28 04:29:59;;;;;;;10.63;8.07;;;;;;;4.26;100.00;99968.31;5055277;28;20655;-70
2021/01/28 04:32:33;;;;;;;8.20;7.40;;;;;;;4.08;100.00;99964.28;5040088;28;20703;-70
2021/01/28 04:35:17;;;;;;;12.00;8.37;;;;;;;4.08;100.00;99975.84;5055919;28;20201;-70
2021/01/28 04:37:44;;;;;;;9.50;8.10;;;;;;;3.79;100.00;99978.09;5021630;28;20219;-71
2021/01/28 04:40:29;;;;;;;13.50;10.17;;;;;;;3.73;100.00;99971.81;5070123;28;20267;-70
2021/01/28 04:42:55;;;;;;;12.87;9.27;;;;;;;3.81;100.00;99973.28;5022541;28;20538;-70
2021/01/28 04:45:29;;;;;;;10.77;8.73;;;;;;;3.67;100.00;99975.50;5036695;28;20226;-70
2021/01/28 04:47:59;;;;;;;11.43;8.83;;;;;;;3.56;100.00;99960.28;5034382;28;20726;-71
2021/01/28 04:50:51;;;;;;;12.53;8.90;;;;;;;3.57;100.00;99955.72;5042464;28;20728;-71
2021/01/28 04:53:34;;;;;;;12.73;9.27;;;;;;;3.55;100.00;99957.84;5039292;28;20174;-71
2021/01/28 04:56:14;;;;;;;16.70;9.23;;;;;;;3.46;100.00;99949.41;5024431;28;20250;-70
2021/01/28 04:59:00;;;;;;;13.67;9.63;;;;;;;3.31;100.00;99961.72;5043417;28;20313;-71
2021/01/28 05:01:29;;;;;;;12.67;8.57;;;;;;;3.35;100.00;99959.38;5033021;28;20218;-70
2021/01/28 05:04:13;;;;;;;12.43;8.60;;;;;;;3.48;100.00;99952.66;5073651;28;20722;-71
2021/01/28 05:06:59;;;;;;;12.63;9.03;;;;;;;3.66;100.00;99949.69;5048513;28;20274;-71
2021/01/28 05:10:08;;;;;;;12.37;8.60;;;;;;;3.39;100.00;99953.31;5090293;28;20221;-71
2021/01/28 05:13:27;;;;;;;12.73;8.60;;;;;;;3.38;100.00;99950.84;5081842;28;20221;-70
2021/01/28 05:16:48;;;;;;;13.23;8.83;;;;;;;3.64;100.00;99951.81;5090674;28;20226;-70
2021/01/28 05:19:36;;;;;;;15.40;9.20;;;;;;;3.63;100.00;99942.16;5056622;28;20218;-70
2021/01/28 05:22:32;;;;;;;15.87;9.63;;;;;;;3.72;100.00;99943.38;5075986;28;20224;-71
2021/01/28 05:25:19;;;;;;;14.97;9.63;;;;;;;3.77;100.00;99946.09;5074074;28;20263;-71
2021/01/28 05:28:28;;;;;;;16.07;10.40;;;;;;;3.82;100.00;99938.13;5077127;28;20235;-71
2021/01/28 05:31:30;;;;;;;16.20;9.37;;;;;;;3.44;100.00;99943.47;5030483;28;20215;-71
2021/01/28 05:34:27;;;;;;;12.63;9.33;;;;;;;3.37;100.00;99944.69;5057321;28;20190;-70
2021/01/28 05:37:11;;;;;;;11.53;8.37;;;;;;;3.26;100.00;99940.22;5038817;28;20219;-69
2021/01/28 05:40:29;;;;;;;14.03;9.37;;;;;;;3.38;100.00;99932.06;5062507;28;20287;-69
2021/01/28 05:43:28;;;;;;;14.60;9.27;;;;;;;3.46;100.00;99927.94;5058376;28;20313;-70
2021/01/28 05:46:13;;;;;;;14.13;8.67;;;;;;;3.51;100.00;99925.31;5054119;28;20297;-70
2021/01/28 05:49:11;;;;;;;15.87;9.30;;;;;;;3.59;100.00;99924.91;5055151;28;20690;-69
2021/01/28 05:52:12;;;;;;;15.80;9.40;;;;;;;3.22;100.00;99932.88;5054623;28;20241;-70
2021/01/28 05:55:07;;;;;;;13.37;8.97;;;;;;;3.10;100.00;99921.41;5069072;28;20190;-69
2021/01/28 05:58:02;;;;;;;14.90;8.50;;;;;;;3.00;100.00;99913.16;5053998;28;20236;-69
2021/01/28 06:00:37;;;;;;;14.40;9.00;;;;;;;3.15;100.00;99918.78;5057043;28;20285;-69
2021/01/28 06:03:28;;;;;;;16.10;8.43;;;;;;;3.16;100.00;99910.50;5069780;28;20179;-69
2021/01/28 06:06:27;;;;;;;13.67;8.27;;;;;;;3.07;100.00;99911.16;5054688;28;20709;-70
2021/01/28 06:09:33;;;;;;;12.60;8.33;;;;;;;3.18;100.00;99912.94;5054336;28;20213;-69
2021/01/28 06:12:23;;;;;;;14.03;8.43;;;;;;;3.19;100.00;99914.59;5068930;28;20264;-69
2021/01/28 06:15:19;;;;;;;13.30;8.10;;;;;;;3.14;100.00;99917.19;5052124;28;20179;-69
2021/01/28 06:17:58;;;;;;;13.53;8.50;;;;;;;3.11;100.00;99906.94;5052997;28;20234;-69
2021/01/28 06:21:01;;;;;;;14.00;8.13;;;;;;;3.16;100.00;99893.63;5053407;28;20364;-69
2021/01/28 06:23:41;;;;;;;16.53;8.33;;;;;;;3.24;100.00;99890.50;5069635;28;20194;-70
2021/01/28 06:26:40;;;;;;;12.33;8.47;;;;;;;3.25;100.00;99892.16;5052492;28;20223;-69
2021/01/28 06:29:20;;;;;;;13.97;8.83;;;;;;;3.28;100.00;99886.28;5073963;28;20289;-69
2021/01/28 06:32:13;;;;;;;17.23;9.13;;;;;;;3.32;100.00;99880.19;5032020;28;20211;-69
2021/01/28 06:35:16;;;;;;;13.57;8.30;;;;;;;3.17;100.00;99888.00;5023194;28;20248;-69
2021/01/28 06:38:29;;;;;;;14.37;8.07;;;;;;;3.10;100.00;99878.50;5035492;28;20231;-70
2021/01/28 06:41:06;;;;;;;14.27;9.20;;;;;;;2.96;100.00;99877.19;5052415;28;20234;-70
2021/01/28 06:44:00;;;;;;;13.97;8.37;;;;;;;2.76;100.00;99878.69;5025500;28;20679;-70
2021/01/28 06:46:53;;;;;;;13.37;8.43;;;;;;;2.67;100.00;99866.72;5037723;28;20312;-70
2021/01/28 06:50:05;;;;;;;16.57;8.20;;;;;;;2.72;100.00;99878.34;5032815;28;20684;-69
2021/01/28 06:52:59;;;;;;;12.87;8.13;;;;;;;2.65;100.00;99873.41;5055818;28;20219;-69
2021/01/28 06:55:56;;;;;;;13.77;8.13;;;;;;;2.82;100.00;99865.16;5051888;28;20225;-70
2021/01/28 06:59:08;;;;;;;13.03;7.93;;;;;;;2.62;100.00;99871.19;5048581;28;20190;-69
2021/01/28 07:02:09;;;;;;;12.23;7.40;;;;;;;2.56;100.00;99874.84;5049998;28;20725;-70
2021/01/28 07:05:21;;;;;;;11.90;7.37;;;;;;;2.40;100.00;99880.94;5063309;28;20221;-70
2021/01/28 07:07:57;;;;;;;12.33;8.00;;;;;;;2.55;100.00;99868.66;5055526;28;20715;-69
2021/01/28 07:10:55;;;;;;;10.03;6.93;;;;;;;2.39;100.00;99871.31;5059355;28;20712;-70
2021/01/28 07:13:47;;;;;;;13.07;7.57;;;;;;;2.31;100.00;99858.31;5058436;28;20282;-69
2021/01/28 07:16:29;;;;;;;10.97;7.57;;;;;;;2.30;100.00;99864.69;5055585;28;20230;-69
2021/01/28 07:18:55;;;;;;;10.90;7.83;;;;;;;2.29;100.00;99863.09;5056598;28;20202;-70
2021/01/28 07:21:32;;;;;;;13.20;7.70;;;;;;;2.30;100.00;99864.69;5048933;28;20211;-70
2021/01/28 07:24:07;;;;;;;13.53;7.83;;;;;;;2.30;100.00;99864.69;5055974;28;20187;-70
2021/01/28 07:26:45;;;;;;;14.00;8.57;;;;;;;2.31;100.00;99867.13;5050367;28;20310;-69
2021/01/28 07:29:31;;;;;;;16.43;8.80;;;;;;;2.52;100.00;99862.97;5060191;28;20217;-69
2021/01/28 07:32:03;;;;;;;14.30;8.57;;;;;;;2.64;100.00;99872.59;5071214;28;20206;-69
2021/01/28 07:34:38;;;;;;;14.60;9.20;;;;;;;2.64;100.00;99875.28;5026647;28;20613;-70
2021/01/28 07:37:22;;;;;;;15.40;9.60;;;;;;;2.72;100.00;99886.41;5041397;28;20637;-69
2021/01/28 07:40:08;;;;;;;15.50;9.63;;;;;;;2.72;100.00;99873.00;5072557;28;20214;-72
2021/01/28 07:43:01;;;;;;;15.90;8.97;;;;;;;2.81;100.00;99868.88;5072387;28;20213;-69
2021/01/28 07:46:27;;;;;;;16.63;9.53;;;;;;;2.80;100.00;99866.44;5071412;28;20598;-70
2021/01/28 07:49:09;;;;;;;15.30;9.27;;;;;;;2.84;100.00;99863.03;5072177;28;20217;-69
2021/01/28 07:52:16;;;;;;;15.83;9.00;;;;;;;2.83;100.00;99866.75;5072097;28;20958;-70
2021/01/28 07:54:48;;;;;;;18.00;9.67;;;;;;;2.77;100.00;99867.75;5068824;28;20182;-71
2021/01/28 07:57:29;;;;;;;17.27;9.20;;;;;;;2.82;100.00;99859.78;5054156;28;20246;-70
2021/01/28 08:00:00;;;;;;;16.93;9.50;;;;;;;2.73;100.00;99863.91;5072511;28;20253;-70
2021/01/28 08:02:38;;;;;;;15.63;9.20;;;;;;;2.78;100.00;99853.28;5071102;28;20211;-70
2021/01/28 08:05:04;;;;;;;15.40;8.83;;;;;;;2.91;100.00;99842.25;5039053;28;20179;-71
2021/01/28 08:07:44;;;;;;;16.50;9.47;;;;;;;2.82;100.00;99835.66;5055898;28;20183;-70
2021/01/28 08:10:25;;;;;;;17.67;10.33;;;;;;;2.88;100.00;99829.31;5055603;28;20203;-71
2021/01/28 08:12:59;;;;;;;15.93;9.87;;;;;;;2.90;100.00;99843.31;5040009;28;20229;-71
2021/01/28 08:16:10;;;;;;;16.03;10.13;;;;;;;2.88;100.00;99842.72;5074032;28;20222;-70
2021/01/28 08:18:45;;;;;;;14.53;9.20;;;;;;;2.79;100.00;99849.53;5076303;28;20282;-70
2021/01/28 08:21:23;;;;;;;13.77;9.77;;;;;;;2.83;100.00;99848.00;5053316;28;20230;-71
2021/01/28 08:23:49;;;;;;;13.03;8.23;;;;;;;2.96;100.00;99861.09;5063108;28;20175;-70
2021/01/28 08:26:22;;;;;;;11.60;8.70;;;;;;;3.10;100.00;99865.09;5067243;28;20215;-69
2021/01/28 08:28:48;;;;;;;11.67;8.90;;;;;;;3.07;100.00;99855.63;5045016;28;20190;-70
2021/01/28 08:31:25;;;;;;;14.63;9.60;;;;;;;3.22;100.00;99850.53;5028416;28;20219;-71
2021/01/28 08:34:01;;;;;;;13.97;10.17;;;;;;;3.16;100.00;99850.69;5026772;28;20250;-70
2021/01/28 08:36:51;;;;;;;16.70;10.43;;;;;;;3.23;100.00;99851.34;5036457;28;20267;-70
2021/01/28 08:39:19;;;;;;;16.67;10.67;;;;;;;3.24;100.00;99852.97;5054262;28;20211;-70
2021/01/28 08:41:46;;;;;;;17.27;11.33;;;;;;;3.17;100.00;99845.09;5037135;28;20272;-70
2021/01/28 08:44:16;;;;;;;15.63;11.03;;;;;;;2.96;100.00;99853.03;5053919;28;20190;-70
2021/01/28 08:46:42;;;;;;;20.17;12.07;;;;;;;2.82;100.00;99843.72;5053263;28;20242;-70
2021/01/28 08:49:19;;;;;;;15.50;11.70;;;;;;;2.79;100.00;99846.88;5037646;28;20762;-70
2021/01/28 08:52:06;;;;;;;18.13;11.87;;;;;;;2.94;100.00;99839.06;5069939;28;20306;-70
2021/01/28 08:54:35;;;;;;;15.80;11.70;;;;;;;2.72;100.00;99827.44;5034329;28;20192;-70
2021/01/28 08:57:01;;;;;;;19.87;11.83;;;;;;;2.76;100.00;99833.13;5069140;28;20215;-70
2021/01/28 08:59:42;;;;;;;16.97;11.70;;;;;;;2.78;100.00;99823.81;5041455;28;20234;-70
2021/01/28 09:02:10;;;;;;;16.50;11.33;;;;;;;2.90;100.00;99816.47;5052813;28;20309;-69
2021/01/28 09:04:37;;;;;;;17.90;11.80;;;;;;;2.90;100.00;99803.09;5049443;28;20174;-70
2021/01/28 09:07:02;;;;;;;16.87;11.53;;;;;;;3.06;100.00;99796.91;5070464;28;20297;-70
2021/01/28 09:09:30;;;;;;;17.83;11.53;;;;;;;3.24;100.00;99799.31;5058138;28;20186;-70
2021/01/28 09:12:27;;;;;;;16.23;11.83;;;;;;;3.09;100.00;99791.84;5057135;28;20228;-70
2021/01/28 09:15:30;;;;;;;17.17;12.43;;;;;;;3.22;100.00;99785.34;5074044;28;20626;-69
2021/01/28 09:18:05;;;;;;;15.27;11.27;;;;;;;3.37;100.00;99782.84;5073461;28;20300;-70
2021/01/28 09:20:36;;;;;;;15.70;11.43;;;;;;;3.42;100.00;99774.88;5056728;28;20274;-70
2021/01/28 09:23:15;;;;;;;15.50;11.43;;;;;;;3.52;100.00;99765.91;5074096;28;20655;-69
2021/01/28 09:25:43;;;;;;;15.43;11.27;;;;;;;3.47;100.00;99773.09;5062387;28;20759;-70
2021/01/28 09:28:14;;;;;;;14.47;10.87;;;;;;;3.57;100.00;99774.03;5090098;28;20576;-69
2021/01/28 09:30:44;;;;;;;14.00;11.37;;;;;;;3.59;100.00;99766.56;5057337;28;20309;-70
2021/01/28 09:33:38;;;;;;;14.40;10.97;;;;;;;3.57;100.00;99768.69;5037038;28;20187;-69
2021/01/28 09:36:06;;;;;;;15.40;11.60;;;;;;;3.31;100.00;99779.28;5069414;28;20630;-69
2021/01/28 09:38:31;;;;;;;14.17;10.70;;;;;;;3.28;100.00;99787.03;5020660;28;20175;-70
2021/01/28 09:41:17;;;;;;;16.67;11.80;;;;;;;3.43;100.00;99780.81;5052721;28;20292;-69
2021/01/28 09:43:43;;;;;;;15.00;11.37;;;;;;;3.50;100.00;99777.97;5042516;28;20211;-69
2021/01/28 09:46:17;;;;;;;17.63;12.30;;;;;;;3.60;100.00;99778.88;5051072;28;20296;-70
2021/01/28 09:48:49;;;;;;;13.63;10.67;;;;;;;3.65;100.00;99770.13;5065458;28;20927;-70
2021/01/28 09:51:35;;;;;;;16.60;11.87;;;;;;;3.73;100.00;99767.78;5046394;28;20539;-70
2021/01/28 09:54:01;;;;;;;15.50;11.30;;;;;;;3.44;100.00;99763.66;5034757;28;20275;-70
2021/01/28 09:56:30;;;;;;;15.53;11.63;;;;;;;3.60;100.00;99770.84;5042930;28;20637;-71
2021/01/28 09:58:55;;;;;;;17.47;11.57;;;;;;;3.77;100.00;99758.16;5053695;28;20242;-69
2021/01/28 10:01:21;;;;;;;16.27;11.70;;;;;;;3.94;100.00;99770.47;5048992;28;20230;-70
2021/01/28 10:03:46;;;;;;;15.23;11.07;;;;;;;3.95;100.00;99760.53;5020369;28;20175;-70
2021/01/28 10:06:12;;;;;;;14.50;11.23;;;;;;;4.08;100.00;99765.50;5034993;28;20229;-69
2021/01/28 10:08:40;;;;;;;15.53;11.97;;;;;;;4.11;100.00;99759.66;5049179;28;20180;-70
2021/01/28 10:11:07;;;;;;;14.27;9.27;;;;;;;4.20;100.00;99759.75;5069161;28;20229;-69
2021/01/28 10:13:32;;;;;;;14.00;10.40;;;;;;;4.24;100.00;99762.72;5071465;28;20262;-70
2021/01/28 10:15:58;;;;;;;12.80;10.13;;;;;;;4.36;100.00;99764.22;5019970;28;20231;-71
2021/01/28 10:18:24;;;;;;;13.17;10.57;;;;;;;4.52;100.00;99757.88;5053783;28;20266;-70
2021/01/28 10:20:50;;;;;;;15.57;9.90;;;;;;;4.45;100.00;99753.78;5036355;28;20314;-69
2021/01/28 10:23:17;;;;;;;15.20;10.70;;;;;;;4.72;100.00;99753.50;5055005;28;20175;-70
2021/01/28 10:25:46;;;;;;;11.43;9.30;;;;;;;4.48;100.00;99750.59;5059741;28;20260;-69
2021/01/28 10:28:11;;;;;;;12.83;9.93;;;;;;;4.49;100.00;99753.03;5093612;28;20204;-69
2021/01/28 10:30:37;;;;;;;13.07;9.60;;;;;;;4.37;100.00;99749.69;5077337;28;20624;-69
2021/01/28 10:33:03;;;;;;;12.17;9.00;;;;;;;4.24;100.00;99755.47;5056710;28;20208;-71
2021/01/28 10:35:29;;;;;;;12.97;9.53;;;;;;;3.79;100.00;99756.06;5055765;28;20696;-70
2021/01/28 10:37:57;;;;;;;13.63;8.90;;;;;;;3.74;100.00;99742.56;5040448;28;20217;-70
2021/01/28 10:40:23;;;;;;;11.77;9.40;;;;;;;3.95;100.00;99744.41;5056349;28;20190;-69
2021/01/28 10:42:53;;;;;;;13.37;9.97;;;;;;;4.20;100.00;99732.88;5040665;28;20249;-69
2021/01/28 10:45:21;;;;;;;11.60;9.13;;;;;;;4.43;100.00;99731.75;5056051;28;20254;-69
2021/01/28 10:47:52;;;;;;;13.27;9.57;;;;;;;4.36;100.00;99741.88;5056854;28;20163;-69
2021/01/28 10:50:25;;;;;;;13.37;9.10;;;;;;;4.40;100.00;99730.38;5056531;28;20229;-69
2021/01/28 10:52:54;;;;;;;11.70;9.00;;;;;;;4.62;100.00;99731.13;5026017;28;20669;-69
2021/01/28 10:55:20;;;;;;;11.30;8.70;;;;;;;4.62;100.00;99725.75;5064320;28;20663;-69
2021/01/28 10:57:47;;;;;;;10.30;7.63;;;;;;;4.65;100.00;99719.81;5071751;28;20293;-70
2021/01/28 11:00:14;;;;;;;8.90;7.13;;;;;;;4.71;100.00;99718.81;5043571;28;20211;-71
2021/01/28 11:02:39;;;;;;;9.10;7.40;;;;;;;4.82;100.00;99709.75;5019937;28;20180;-70
2021/01/28 11:05:20;;;;;;;9.23;7.30;;;;;;;4.78;100.00;99708.63;5054516;28;20186;-69
2021/01/28 11:07:48;;;;;;;9.73;7.47;;;;;;;4.87;99.70;99701.72;5052427;28;20600;-70
2021/01/28 11:10:16;;;;;;;8.73;6.97;;;;;;;5.02;100.00;99705.31;5034681;28;20206;-69
2021/01/28 11:12:42;;;;;;;8.87;7.67;;;;;;;4.83;100.00;99700.59;5052641;28;20183;-70
2021/01/28 11:15:08;;;;;;;9.27;6.80;;;;;;;4.86;100.00;99700.09;5051563;28;20192;-69
2021/01/28 11:17:34;;;;;;;10.70;7.13;;;;;;;4.89;99.09;99689.63;5052969;28;20200;-69
2021/01/28 11:20:00;;;;;;;9.10;6.60;;;;;;;4.76;98.81;99695.47;5039697;28;20203;-70
2021/01/28 11:22:28;;;;;;;10.07;6.87;;;;;;;4.86;99.42;99692.03;5083749;28;20210;-70
2021/01/28 11:24:53;;;;;;;9.33;6.77;;;;;;;4.70;100.00;99683.03;5073638;28;20290;-69
2021/01/28 11:27:19;;;;;;;8.47;6.27;;;;;;;4.65;99.41;99688.41;5046260;28;20214;-70
2021/01/28 11:29:44;;;;;;;9.20;6.23;;;;;;;4.57;99.79;99674.59;5019886;28;20685;-69
2021/01/28 11:32:10;;;;;;;8.37;6.47;;;;;;;4.71;99.95;99671.22;5071473;28;20257;-69
2021/01/28 11:34:35;;;;;;;8.70;6.93;;;;;;;4.90;99.52;99666.22;5055646;28;20179;-70
2021/01/28 11:37:06;;;;;;;8.10;6.47;;;;;;;5.16;97.90;99658.84;5064700;28;20315;-69
2021/01/28 11:39:31;;;;;;;6.97;5.87;;;;;;;5.33;98.24;99654.09;5092266;28;20587;-69
2021/01/28 11:42:00;;;;;;;7.27;6.03;;;;;;;5.34;97.34;99647.63;5091445;28;20222;-69
2021/01/28 11:44:26;;;;;;;8.70;6.40;;;;;;;5.34;96.55;99654.91;5058505;28;20521;-69
2021/01/28 11:46:53;;;;;;;8.47;6.60;;;;;;;5.42;96.34;99647.09;5074883;28;20210;-69
2021/01/28 11:49:19;;;;;;;9.83;6.60;;;;;;;5.51;96.74;99640.97;5093528;28;20226;-71
2021/01/28 11:51:45;;;;;;;8.47;6.67;;;;;;;5.47;95.01;99639.06;5041282;28;20217;-69
2021/01/28 11:54:12;;;;;;;7.47;6.40;;;;;;;5.27;96.17;99638.97;5069381;28;20174;-70
2021/01/28 11:56:38;;;;;;;7.30;6.07;;;;;;;5.30;95.79;99638.47;5082969;28;20764;-69
2021/01/28 11:59:06;;;;;;;8.57;6.43;;;;;;;5.26;95.84;99641.94;5089518;28;20210;-68
2021/01/28 12:01:31;;;;;;;8.80;6.43;;;;;;;5.35;95.12;99625.81;5072189;28;20215;-69
2021/01/28 12:03:57;;;;;;;9.53;6.37;;;;;;;5.38;96.49;99640.63;5022208;28;20195;-71
2021/01/28 12:06:23;;;;;;;7.30;5.90;;;;;;;5.44;95.77;99634.22;5070767;28;20230;-70